sensor_id;sensor_type;location;lat;lon;timestamp;temperature;humidity
4509;DHT22;2267;48.816;9.230;2023-07-30T00:00:33;21.40;99.90
4509;DHT22;2267;48.816;9.230;2023-07-30T00:03:00;21.40;99.90
4509;DHT22;2267;48.816;9.230;2023-07-30T00:05:27;21.30;99.90
4509;DHT22;2267;48.816;9.230;2023-07-30T00:07:55;21.30;99.90
4509;DHT22;2267;48.816;9.230;2023-07-30T00:10:22;21.30;99.90
4509;DHT22;2267;48.816;9.230;2023-07-30T00:12:49;21.30;99.90
4509;DHT22;2267;48.816;9.230;2023-07-30T00:15:15;21.30;99.90
4509;DHT22;2267;48.816;9.230;2023-07-30T00:17:42;21.30;99.90
4509;DHT22;2267;48.816;9.230;2023-07-30T00:20:09;21.40;99.90
4509;DHT22;2267;48.816;9.230;2023-07-30T00:22:36;21.40;99.90
4509;DHT22;2267;48.816;9.230;2023-07-30T00:25:03;21.30;99.90
4509;DHT22;2267;48.816;9.230;2023-07-30T00:27:30;21.40;99.90
4509;DHT22;2267;48.816;9.230;2023-07-30T00:29:57;21.30;99.90
4509;DHT22;2267;48.816;9.230;2023-07-30T00:32:24;21.30;99.90
4509;DHT22;2267;48.816;9.230;2023-07-30T00:34:50;21.30;99.90
4509;DHT22;2267;48.816;9.230;2023-07-30T00:37:17;21.20;99.90
4509;DHT22;2267;48.816;9.230;2023-07-30T00:39:44;21.20;99.90
4509;DHT22;2267;48.816;9.230;2023-07-30T00:42:11;21.20;99.90
4509;DHT22;2267;48.816;9.230;2023-07-30T00:44:38;21.20;99.90
4509;DHT22;2267;48.816;9.230;2023-07-30T00:47:04;21.20;99.90
4509;DHT22;2267;48.816;9.230;2023-07-30T00:49:32;21.20;99.90
4509;DHT22;2267;48.816;9.230;2023-07-30T00:51:59;21.20;99.90
4509;DHT22;2267;48.816;9.230;2023-07-30T00:54:26;21.20;99.90
4509;DHT22;2267;48.816;9.230;2023-07-30T00:56:53;21.20;99.90
4509;DHT22;2267;48.816;9.230;2023-07-30T00:59:20;21.20;99.90
4509;DHT22;2267;48.816;9.230;2023-07-30T01:01:49;21.20;99.90
4509;DHT22;2267;48.816;9.230;2023-07-30T01:04:17;21.20;99.90
4509;DHT22;2267;48.816;9.230;2023-07-30T01:06:44;21.10;99.90
4509;DHT22;2267;48.816;9.230;2023-07-30T01:09:11;21.10;99.90
4509;DHT22;2267;48.816;9.230;2023-07-30T01:11:38;21.10;99.90
4509;DHT22;2267;48.816;9.230;2023-07-30T01:14:07;21.10;99.90
4509;DHT22;2267;48.816;9.230;2023-07-30T01:16:35;21.10;99.90
4509;DHT22;2267;48.816;9.230;2023-07-30T01:19:02;21.10;99.90
4509;DHT22;2267;48.816;9.230;2023-07-30T01:21:39;21.20;99.90
4509;DHT22;2267;48.816;9.230;2023-07-30T01:24:07;21.10;99.90
4509;DHT22;2267;48.816;9.230;2023-07-30T01:26:46;21.20;99.90
4509;DHT22;2267;48.816;9.230;2023-07-30T01:29:33;21.10;99.90
4509;DHT22;2267;48.816;9.230;2023-07-30T01:32:04;21.10;99.90
4509;DHT22;2267;48.816;9.230;2023-07-30T01:34:35;21.10;99.90
4509;DHT22;2267;48.816;9.230;2023-07-30T01:37:02;21.10;99.90
4509;DHT22;2267;48.816;9.230;2023-07-30T01:39:30;21.10;99.90
4509;DHT22;2267;48.816;9.230;2023-07-30T01:41:57;21.10;99.90
4509;DHT22;2267;48.816;9.230;2023-07-30T01:44:24;21.10;99.90
4509;DHT22;2267;48.816;9.230;2023-07-30T01:46:51;21.10;99.90
4509;DHT22;2267;48.816;9.230;2023-07-30T01:49:18;21.00;99.90
4509;DHT22;2267;48.816;9.230;2023-07-30T01:51:44;21.10;99.90
4509;DHT22;2267;48.816;9.230;2023-07-30T01:54:11;21.10;99.90
4509;DHT22;2267;48.816;9.230;2023-07-30T01:56:38;21.10;99.90
4509;DHT22;2267;48.816;9.230;2023-07-30T01:59:05;21.10;99.90
4509;DHT22;2267;48.816;9.230;2023-07-30T02:01:32;21.00;99.90
4509;DHT22;2267;48.816;9.230;2023-07-30T02:03:59;21.10;99.90
4509;DHT22;2267;48.816;9.230;2023-07-30T02:06:26;21.00;99.90
4509;DHT22;2267;48.816;9.230;2023-07-30T02:08:53;21.00;99.90
4509;DHT22;2267;48.816;9.230;2023-07-30T02:11:20;21.00;99.90
4509;DHT22;2267;48.816;9.230;2023-07-30T02:13:46;21.00;99.90
4509;DHT22;2267;48.816;9.230;2023-07-30T02:16:13;21.00;99.90
4509;DHT22;2267;48.816;9.230;2023-07-30T02:18:40;21.00;99.90
4509;DHT22;2267;48.816;9.230;2023-07-30T02:21:07;21.00;99.90
4509;DHT22;2267;48.816;9.230;2023-07-30T02:23:34;21.00;99.90
4509;DHT22;2267;48.816;9.230;2023-07-30T02:26:00;21.00;99.90
4509;DHT22;2267;48.816;9.230;2023-07-30T02:28:27;21.00;99.90
4509;DHT22;2267;48.816;9.230;2023-07-30T02:30:54;21.00;99.90
4509;DHT22;2267;48.816;9.230;2023-07-30T02:33:21;21.00;99.90
4509;DHT22;2267;48.816;9.230;2023-07-30T02:35:48;21.00;99.90
4509;DHT22;2267;48.816;9.230;2023-07-30T02:38:14;21.00;99.90
4509;DHT22;2267;48.816;9.230;2023-07-30T02:40:41;21.00;99.90
4509;DHT22;2267;48.816;9.230;2023-07-30T02:43:08;21.00;99.90
4509;DHT22;2267;48.816;9.230;2023-07-30T02:45:35;21.00;99.90
4509;DHT22;2267;48.816;9.230;2023-07-30T02:48:02;21.00;99.90
4509;DHT22;2267;48.816;9.230;2023-07-30T02:50:29;21.10;99.90
4509;DHT22;2267;48.816;9.230;2023-07-30T02:52:56;21.10;99.90
4509;DHT22;2267;48.816;9.230;2023-07-30T02:55:22;21.00;99.90
4509;DHT22;2267;48.816;9.230;2023-07-30T02:57:49;21.00;99.90
4509;DHT22;2267;48.816;9.230;2023-07-30T03:00:17;21.00;99.90
4509;DHT22;2267;48.816;9.230;2023-07-30T03:02:43;21.00;99.90
4509;DHT22;2267;48.816;9.230;2023-07-30T03:05:11;21.00;99.90
4509;DHT22;2267;48.816;9.230;2023-07-30T03:07:38;21.00;99.90
4509;DHT22;2267;48.816;9.230;2023-07-30T03:10:05;21.00;99.90
4509;DHT22;2267;48.816;9.230;2023-07-30T03:12:32;20.90;99.90
4509;DHT22;2267;48.816;9.230;2023-07-30T03:14:58;20.90;99.90
4509;DHT22;2267;48.816;9.230;2023-07-30T03:17:25;20.90;99.90
4509;DHT22;2267;48.816;9.230;2023-07-30T03:19:52;20.90;99.90
4509;DHT22;2267;48.816;9.230;2023-07-30T03:22:19;20.90;99.90
4509;DHT22;2267;48.816;9.230;2023-07-30T03:24:46;20.90;99.90
4509;DHT22;2267;48.816;9.230;2023-07-30T03:27:14;20.90;99.90
4509;DHT22;2267;48.816;9.230;2023-07-30T03:29:41;20.90;99.90
4509;DHT22;2267;48.816;9.230;2023-07-30T03:32:07;20.90;99.90
4509;DHT22;2267;48.816;9.230;2023-07-30T03:34:34;20.90;99.90
4509;DHT22;2267;48.816;9.230;2023-07-30T03:37:01;20.80;99.90
4509;DHT22;2267;48.816;9.230;2023-07-30T03:39:28;20.90;99.90
4509;DHT22;2267;48.816;9.230;2023-07-30T03:41:55;20.80;99.90
4509;DHT22;2267;48.816;9.230;2023-07-30T03:44:21;20.80;99.90
4509;DHT22;2267;48.816;9.230;2023-07-30T03:46:49;20.80;99.90
4509;DHT22;2267;48.816;9.230;2023-07-30T03:49:16;20.80;99.90
4509;DHT22;2267;48.816;9.230;2023-07-30T03:51:42;20.80;99.90
4509;DHT22;2267;48.816;9.230;2023-07-30T03:54:09;20.80;99.90
4509;DHT22;2267;48.816;9.230;2023-07-30T03:56:36;20.80;99.90
4509;DHT22;2267;48.816;9.230;2023-07-30T03:59:03;20.80;99.90
4509;DHT22;2267;48.816;9.230;2023-07-30T04:01:30;20.80;99.90
4509;DHT22;2267;48.816;9.230;2023-07-30T04:03:57;20.80;99.90
4509;DHT22;2267;48.816;9.230;2023-07-30T04:06:24;20.80;99.90
4509;DHT22;2267;48.816;9.230;2023-07-30T04:08:50;20.80;99.90
4509;DHT22;2267;48.816;9.230;2023-07-30T04:11:17;20.80;99.90
4509;DHT22;2267;48.816;9.230;2023-07-30T04:13:44;20.80;99.90
4509;DHT22;2267;48.816;9.230;2023-07-30T04:16:11;20.80;99.90
4509;DHT22;2267;48.816;9.230;2023-07-30T04:18:38;20.80;99.90
4509;DHT22;2267;48.816;9.230;2023-07-30T04:21:05;20.80;99.90
4509;DHT22;2267;48.816;9.230;2023-07-30T04:23:32;20.80;99.90
4509;DHT22;2267;48.816;9.230;2023-07-30T04:25:58;20.80;99.90
4509;DHT22;2267;48.816;9.230;2023-07-30T04:28:25;20.80;99.90
4509;DHT22;2267;48.816;9.230;2023-07-30T04:30:52;20.80;99.90
4509;DHT22;2267;48.816;9.230;2023-07-30T04:33:19;20.80;99.90
4509;DHT22;2267;48.816;9.230;2023-07-30T04:35:46;20.80;99.90
4509;DHT22;2267;48.816;9.230;2023-07-30T04:38:12;20.70;99.90
4509;DHT22;2267;48.816;9.230;2023-07-30T04:40:39;20.70;99.90
4509;DHT22;2267;48.816;9.230;2023-07-30T04:43:06;20.80;99.90
4509;DHT22;2267;48.816;9.230;2023-07-30T04:45:34;20.80;99.90
4509;DHT22;2267;48.816;9.230;2023-07-30T04:48:01;20.80;99.90
4509;DHT22;2267;48.816;9.230;2023-07-30T04:50:28;20.80;99.90
4509;DHT22;2267;48.816;9.230;2023-07-30T04:52:55;20.70;99.90
4509;DHT22;2267;48.816;9.230;2023-07-30T04:55:22;20.70;99.90
4509;DHT22;2267;48.816;9.230;2023-07-30T04:57:48;20.70;99.90
4509;DHT22;2267;48.816;9.230;2023-07-30T05:00:15;20.70;99.90
4509;DHT22;2267;48.816;9.230;2023-07-30T05:02:43;20.70;99.90
4509;DHT22;2267;48.816;9.230;2023-07-30T05:05:10;20.80;99.90
4509;DHT22;2267;48.816;9.230;2023-07-30T05:07:37;20.70;99.90
4509;DHT22;2267;48.816;9.230;2023-07-30T05:10:05;20.80;99.90
4509;DHT22;2267;48.816;9.230;2023-07-30T05:12:33;20.80;99.90
4509;DHT22;2267;48.816;9.230;2023-07-30T05:15:00;20.80;99.90
4509;DHT22;2267;48.816;9.230;2023-07-30T05:17:27;20.80;99.90
4509;DHT22;2267;48.816;9.230;2023-07-30T05:19:53;20.80;99.90
4509;DHT22;2267;48.816;9.230;2023-07-30T05:22:20;20.80;99.90
4509;DHT22;2267;48.816;9.230;2023-07-30T05:24:47;20.80;99.90
4509;DHT22;2267;48.816;9.230;2023-07-30T05:27:14;20.80;99.90
4509;DHT22;2267;48.816;9.230;2023-07-30T05:29:41;20.80;99.90
4509;DHT22;2267;48.816;9.230;2023-07-30T05:32:08;20.80;99.90
4509;DHT22;2267;48.816;9.230;2023-07-30T05:34:35;20.80;99.90
4509;DHT22;2267;48.816;9.230;2023-07-30T05:37:02;20.80;99.90
4509;DHT22;2267;48.816;9.230;2023-07-30T05:39:29;20.80;99.90
4509;DHT22;2267;48.816;9.230;2023-07-30T05:41:55;20.80;99.90
4509;DHT22;2267;48.816;9.230;2023-07-30T05:44:22;20.80;99.90
4509;DHT22;2267;48.816;9.230;2023-07-30T05:46:49;20.80;99.90
4509;DHT22;2267;48.816;9.230;2023-07-30T05:49:16;20.80;99.90
4509;DHT22;2267;48.816;9.230;2023-07-30T05:51:43;20.80;99.90
4509;DHT22;2267;48.816;9.230;2023-07-30T05:54:10;20.80;99.90
4509;DHT22;2267;48.816;9.230;2023-07-30T05:56:36;20.80;99.90
4509;DHT22;2267;48.816;9.230;2023-07-30T05:59:03;20.80;99.90
4509;DHT22;2267;48.816;9.230;2023-07-30T06:01:30;20.80;99.90
4509;DHT22;2267;48.816;9.230;2023-07-30T06:03:57;20.80;99.90
4509;DHT22;2267;48.816;9.230;2023-07-30T06:06:24;20.70;99.90
4509;DHT22;2267;48.816;9.230;2023-07-30T06:08:54;20.70;99.90
4509;DHT22;2267;48.816;9.230;2023-07-30T06:11:22;20.60;99.90
4509;DHT22;2267;48.816;9.230;2023-07-30T06:13:49;20.60;99.90
4509;DHT22;2267;48.816;9.230;2023-07-30T06:16:18;20.60;99.90
4509;DHT22;2267;48.816;9.230;2023-07-30T06:18:45;20.70;99.90
4509;DHT22;2267;48.816;9.230;2023-07-30T06:21:12;20.70;99.90
4509;DHT22;2267;48.816;9.230;2023-07-30T06:23:38;20.70;99.90
4509;DHT22;2267;48.816;9.230;2023-07-30T06:26:05;20.70;99.90
4509;DHT22;2267;48.816;9.230;2023-07-30T06:28:32;20.80;99.90
4509;DHT22;2267;48.816;9.230;2023-07-30T06:31:02;20.80;99.90
4509;DHT22;2267;48.816;9.230;2023-07-30T06:33:29;20.80;99.90
4509;DHT22;2267;48.816;9.230;2023-07-30T06:35:59;20.80;99.90
4509;DHT22;2267;48.816;9.230;2023-07-30T06:38:25;20.80;99.90
4509;DHT22;2267;48.816;9.230;2023-07-30T06:40:52;20.80;99.90
4509;DHT22;2267;48.816;9.230;2023-07-30T06:43:19;20.80;99.90
4509;DHT22;2267;48.816;9.230;2023-07-30T06:45:46;20.90;99.90
4509;DHT22;2267;48.816;9.230;2023-07-30T06:48:13;20.90;99.90
4509;DHT22;2267;48.816;9.230;2023-07-30T06:50:42;21.00;99.90
4509;DHT22;2267;48.816;9.230;2023-07-30T06:53:08;21.00;99.90
4509;DHT22;2267;48.816;9.230;2023-07-30T06:55:35;21.00;99.90
4509;DHT22;2267;48.816;9.230;2023-07-30T06:58:02;21.10;99.90
4509;DHT22;2267;48.816;9.230;2023-07-30T07:00:29;21.10;99.90
4509;DHT22;2267;48.816;9.230;2023-07-30T07:02:56;21.10;99.90
4509;DHT22;2267;48.816;9.230;2023-07-30T07:05:23;21.10;99.90
4509;DHT22;2267;48.816;9.230;2023-07-30T07:07:49;21.10;99.90
4509;DHT22;2267;48.816;9.230;2023-07-30T07:10:16;21.10;99.90
4509;DHT22;2267;48.816;9.230;2023-07-30T07:12:43;21.10;99.90
4509;DHT22;2267;48.816;9.230;2023-07-30T07:15:10;21.10;99.90
4509;DHT22;2267;48.816;9.230;2023-07-30T07:17:37;21.10;99.90
4509;DHT22;2267;48.816;9.230;2023-07-30T07:20:04;21.10;99.90
4509;DHT22;2267;48.816;9.230;2023-07-30T07:22:33;21.10;99.90
4509;DHT22;2267;48.816;9.230;2023-07-30T07:25:00;21.10;99.90
4509;DHT22;2267;48.816;9.230;2023-07-30T07:27:27;21.10;99.90
4509;DHT22;2267;48.816;9.230;2023-07-30T07:29:54;21.10;99.90
4509;DHT22;2267;48.816;9.230;2023-07-30T07:32:21;21.10;99.90
4509;DHT22;2267;48.816;9.230;2023-07-30T07:34:49;21.10;99.90
4509;DHT22;2267;48.816;9.230;2023-07-30T07:37:16;21.10;99.90
4509;DHT22;2267;48.816;9.230;2023-07-30T07:39:45;21.10;99.90
4509;DHT22;2267;48.816;9.230;2023-07-30T07:42:12;21.10;99.90
4509;DHT22;2267;48.816;9.230;2023-07-30T07:44:39;21.10;99.90
4509;DHT22;2267;48.816;9.230;2023-07-30T07:47:06;21.10;99.90
4509;DHT22;2267;48.816;9.230;2023-07-30T07:49:33;21.00;99.90
4509;DHT22;2267;48.816;9.230;2023-07-30T07:51:59;21.00;99.90
4509;DHT22;2267;48.816;9.230;2023-07-30T07:54:26;20.90;99.90
4509;DHT22;2267;48.816;9.230;2023-07-30T07:56:53;20.90;99.90
4509;DHT22;2267;48.816;9.230;2023-07-30T07:59:20;20.90;99.90
4509;DHT22;2267;48.816;9.230;2023-07-30T08:01:47;20.90;99.90
4509;DHT22;2267;48.816;9.230;2023-07-30T08:04:14;20.90;99.90
4509;DHT22;2267;48.816;9.230;2023-07-30T08:06:41;20.90;99.90
4509;DHT22;2267;48.816;9.230;2023-07-30T08:09:07;21.00;99.90
4509;DHT22;2267;48.816;9.230;2023-07-30T08:11:34;21.00;99.90
4509;DHT22;2267;48.816;9.230;2023-07-30T08:14:02;21.00;99.90
4509;DHT22;2267;48.816;9.230;2023-07-30T08:16:28;21.10;99.90
4509;DHT22;2267;48.816;9.230;2023-07-30T08:18:55;21.20;99.90
4509;DHT22;2267;48.816;9.230;2023-07-30T08:21:22;21.20;99.90
4509;DHT22;2267;48.816;9.230;2023-07-30T08:23:49;21.20;99.90
4509;DHT22;2267;48.816;9.230;2023-07-30T08:26:16;21.30;99.90
4509;DHT22;2267;48.816;9.230;2023-07-30T08:28:42;21.30;99.90
4509;DHT22;2267;48.816;9.230;2023-07-30T08:31:09;21.30;99.90
4509;DHT22;2267;48.816;9.230;2023-07-30T08:33:36;21.40;99.90
4509;DHT22;2267;48.816;9.230;2023-07-30T08:36:03;21.50;99.90
4509;DHT22;2267;48.816;9.230;2023-07-30T08:38:30;21.60;99.90
4509;DHT22;2267;48.816;9.230;2023-07-30T08:40:57;21.70;99.90
4509;DHT22;2267;48.816;9.230;2023-07-30T08:43:24;21.70;99.90
4509;DHT22;2267;48.816;9.230;2023-07-30T08:45:50;21.70;99.90
4509;DHT22;2267;48.816;9.230;2023-07-30T08:48:17;21.80;99.90
4509;DHT22;2267;48.816;9.230;2023-07-30T08:50:45;21.80;99.90
4509;DHT22;2267;48.816;9.230;2023-07-30T08:53:12;21.90;99.90
4509;DHT22;2267;48.816;9.230;2023-07-30T08:55:41;22.00;99.90
4509;DHT22;2267;48.816;9.230;2023-07-30T08:58:08;22.00;99.90
4509;DHT22;2267;48.816;9.230;2023-07-30T09:00:37;22.10;99.90
4509;DHT22;2267;48.816;9.230;2023-07-30T09:03:05;22.20;99.90
4509;DHT22;2267;48.816;9.230;2023-07-30T09:05:33;22.20;99.90
4509;DHT22;2267;48.816;9.230;2023-07-30T09:08:00;22.30;99.90
4509;DHT22;2267;48.816;9.230;2023-07-30T09:10:27;22.30;99.90
4509;DHT22;2267;48.816;9.230;2023-07-30T09:12:55;22.30;99.90
4509;DHT22;2267;48.816;9.230;2023-07-30T09:15:37;22.40;99.90
4509;DHT22;2267;48.816;9.230;2023-07-30T09:18:05;22.40;99.90
4509;DHT22;2267;48.816;9.230;2023-07-30T09:20:40;22.40;99.90
4509;DHT22;2267;48.816;9.230;2023-07-30T09:23:08;22.40;99.90
4509;DHT22;2267;48.816;9.230;2023-07-30T09:25:36;22.40;99.90
4509;DHT22;2267;48.816;9.230;2023-07-30T09:28:04;22.50;99.90
4509;DHT22;2267;48.816;9.230;2023-07-30T09:30:31;22.50;99.90
4509;DHT22;2267;48.816;9.230;2023-07-30T09:32:59;22.50;99.90
4509;DHT22;2267;48.816;9.230;2023-07-30T09:35:26;22.50;99.90
4509;DHT22;2267;48.816;9.230;2023-07-30T09:38:01;22.50;99.90
4509;DHT22;2267;48.816;9.230;2023-07-30T09:40:34;22.50;99.90
4509;DHT22;2267;48.816;9.230;2023-07-30T09:43:03;22.50;99.90
4509;DHT22;2267;48.816;9.230;2023-07-30T09:45:34;22.50;99.90
4509;DHT22;2267;48.816;9.230;2023-07-30T09:48:03;22.50;99.90
4509;DHT22;2267;48.816;9.230;2023-07-30T09:50:33;22.40;99.90
4509;DHT22;2267;48.816;9.230;2023-07-30T09:53:01;22.40;99.90
4509;DHT22;2267;48.816;9.230;2023-07-30T09:55:28;22.40;99.90
4509;DHT22;2267;48.816;9.230;2023-07-30T09:57:55;22.40;99.90
4509;DHT22;2267;48.816;9.230;2023-07-30T10:00:22;22.40;99.90
4509;DHT22;2267;48.816;9.230;2023-07-30T10:02:50;22.40;99.90
4509;DHT22;2267;48.816;9.230;2023-07-30T10:05:20;22.40;99.90
4509;DHT22;2267;48.816;9.230;2023-07-30T10:10:44;22.50;99.90
4509;DHT22;2267;48.816;9.230;2023-07-30T10:13:12;22.50;99.90
4509;DHT22;2267;48.816;9.230;2023-07-30T10:15:40;22.60;99.90
4509;DHT22;2267;48.816;9.230;2023-07-30T10:18:07;22.60;99.90
4509;DHT22;2267;48.816;9.230;2023-07-30T10:20:34;22.70;99.90
4509;DHT22;2267;48.816;9.230;2023-07-30T10:23:05;22.70;99.90
4509;DHT22;2267;48.816;9.230;2023-07-30T10:25:46;22.80;99.90
4509;DHT22;2267;48.816;9.230;2023-07-30T10:28:43;22.80;99.90
4509;DHT22;2267;48.816;9.230;2023-07-30T10:31:10;22.90;99.90
4509;DHT22;2267;48.816;9.230;2023-07-30T10:33:49;22.90;99.90
4509;DHT22;2267;48.816;9.230;2023-07-30T10:36:18;22.90;99.90
4509;DHT22;2267;48.816;9.230;2023-07-30T10:38:46;22.90;99.90
4509;DHT22;2267;48.816;9.230;2023-07-30T10:41:15;23.00;99.90
4509;DHT22;2267;48.816;9.230;2023-07-30T10:43:49;23.00;99.90
4509;DHT22;2267;48.816;9.230;2023-07-30T10:46:18;23.10;99.90
4509;DHT22;2267;48.816;9.230;2023-07-30T10:48:47;23.10;99.90
4509;DHT22;2267;48.816;9.230;2023-07-30T10:51:16;23.20;99.90
4509;DHT22;2267;48.816;9.230;2023-07-30T10:56:12;23.30;99.90
4509;DHT22;2267;48.816;9.230;2023-07-30T10:58:39;23.30;99.90
4509;DHT22;2267;48.816;9.230;2023-07-30T11:01:07;23.40;99.90
4509;DHT22;2267;48.816;9.230;2023-07-30T11:03:35;23.40;99.90
4509;DHT22;2267;48.816;9.230;2023-07-30T11:06:03;23.50;99.90
4509;DHT22;2267;48.816;9.230;2023-07-30T11:08:41;23.60;99.90
4509;DHT22;2267;48.816;9.230;2023-07-30T11:11:09;23.70;99.90
4509;DHT22;2267;48.816;9.230;2023-07-30T11:13:43;23.90;99.90
4509;DHT22;2267;48.816;9.230;2023-07-30T11:16:13;23.90;99.90
4509;DHT22;2267;48.816;9.230;2023-07-30T11:18:40;23.90;99.90
4509;DHT22;2267;48.816;9.230;2023-07-30T11:21:12;24.00;99.90
4509;DHT22;2267;48.816;9.230;2023-07-30T11:23:40;24.00;99.90
4509;DHT22;2267;48.816;9.230;2023-07-30T11:26:18;23.90;99.90
4509;DHT22;2267;48.816;9.230;2023-07-30T11:28:45;23.80;99.70
4509;DHT22;2267;48.816;9.230;2023-07-30T11:31:15;23.90;99.90
4509;DHT22;2267;48.816;9.230;2023-07-30T11:33:47;24.00;99.90
4509;DHT22;2267;48.816;9.230;2023-07-30T11:36:22;23.90;99.90
4509;DHT22;2267;48.816;9.230;2023-07-30T11:38:51;24.00;99.90
4509;DHT22;2267;48.816;9.230;2023-07-30T11:41:20;23.90;99.90
4509;DHT22;2267;48.816;9.230;2023-07-30T11:43:49;24.00;99.90
4509;DHT22;2267;48.816;9.230;2023-07-30T11:46:18;24.10;99.90
4509;DHT22;2267;48.816;9.230;2023-07-30T11:48:53;24.20;99.90
4509;DHT22;2267;48.816;9.230;2023-07-30T11:51:36;24.30;99.90
4509;DHT22;2267;48.816;9.230;2023-07-30T11:54:03;24.30;99.90
4509;DHT22;2267;48.816;9.230;2023-07-30T11:56:32;24.30;99.90
4509;DHT22;2267;48.816;9.230;2023-07-30T11:59:02;24.40;99.90
4509;DHT22;2267;48.816;9.230;2023-07-30T12:01:32;24.40;99.90
4509;DHT22;2267;48.816;9.230;2023-07-30T12:04:02;24.60;99.90
4509;DHT22;2267;48.816;9.230;2023-07-30T12:09:16;24.70;98.60
4509;DHT22;2267;48.816;9.230;2023-07-30T12:14:15;24.80;98.80
4509;DHT22;2267;48.816;9.230;2023-07-30T12:16:42;25.00;98.20
4509;DHT22;2267;48.816;9.230;2023-07-30T12:19:09;25.10;97.80
4509;DHT22;2267;48.816;9.230;2023-07-30T12:21:35;25.20;98.40
4509;DHT22;2267;48.816;9.230;2023-07-30T12:24:05;25.30;98.40
4509;DHT22;2267;48.816;9.230;2023-07-30T12:26:32;25.50;97.90
4509;DHT22;2267;48.816;9.230;2023-07-30T12:28:59;25.60;97.70
4509;DHT22;2267;48.816;9.230;2023-07-30T12:31:26;25.70;97.80
4509;DHT22;2267;48.816;9.230;2023-07-30T12:33:53;25.80;97.20
4509;DHT22;2267;48.816;9.230;2023-07-30T12:36:19;25.70;95.50
4509;DHT22;2267;48.816;9.230;2023-07-30T12:38:46;25.80;95.90
4509;DHT22;2267;48.816;9.230;2023-07-30T12:41:13;25.80;95.20
4509;DHT22;2267;48.816;9.230;2023-07-30T12:43:40;25.70;95.80
4509;DHT22;2267;48.816;9.230;2023-07-30T12:46:07;25.80;96.60
4509;DHT22;2267;48.816;9.230;2023-07-30T12:48:34;25.80;96.20
4509;DHT22;2267;48.816;9.230;2023-07-30T12:51:01;25.70;96.30
4509;DHT22;2267;48.816;9.230;2023-07-30T12:53:28;25.60;95.60
4509;DHT22;2267;48.816;9.230;2023-07-30T12:55:55;25.50;95.70
4509;DHT22;2267;48.816;9.230;2023-07-30T12:58:22;25.60;95.90
4509;DHT22;2267;48.816;9.230;2023-07-30T13:00:49;25.70;95.40
4509;DHT22;2267;48.816;9.230;2023-07-30T13:03:16;25.70;95.00
4509;DHT22;2267;48.816;9.230;2023-07-30T13:05:43;25.80;94.10
4509;DHT22;2267;48.816;9.230;2023-07-30T13:08:10;25.70;94.10
4509;DHT22;2267;48.816;9.230;2023-07-30T13:10:37;25.70;94.50
4509;DHT22;2267;48.816;9.230;2023-07-30T13:13:03;25.80;94.30
4509;DHT22;2267;48.816;9.230;2023-07-30T13:15:30;25.80;93.50
4509;DHT22;2267;48.816;9.230;2023-07-30T13:17:57;25.80;92.40
4509;DHT22;2267;48.816;9.230;2023-07-30T13:20:24;25.90;93.40
4509;DHT22;2267;48.816;9.230;2023-07-30T13:22:51;26.00;92.70
4509;DHT22;2267;48.816;9.230;2023-07-30T13:25:18;26.10;92.70
4509;DHT22;2267;48.816;9.230;2023-07-30T13:27:46;26.10;92.20
4509;DHT22;2267;48.816;9.230;2023-07-30T13:30:13;26.10;91.80
4509;DHT22;2267;48.816;9.230;2023-07-30T13:32:40;26.20;92.00
4509;DHT22;2267;48.816;9.230;2023-07-30T13:35:07;26.30;92.60
4509;DHT22;2267;48.816;9.230;2023-07-30T13:37:34;26.30;92.40
4509;DHT22;2267;48.816;9.230;2023-07-30T13:40:00;26.20;92.40
4509;DHT22;2267;48.816;9.230;2023-07-30T13:42:27;26.20;92.50
4509;DHT22;2267;48.816;9.230;2023-07-30T13:44:54;26.10;93.00
4509;DHT22;2267;48.816;9.230;2023-07-30T13:47:21;26.00;92.60
4509;DHT22;2267;48.816;9.230;2023-07-30T13:49:48;25.80;92.60
4509;DHT22;2267;48.816;9.230;2023-07-30T13:52:15;25.70;92.90
4509;DHT22;2267;48.816;9.230;2023-07-30T13:54:42;25.50;93.30
4509;DHT22;2267;48.816;9.230;2023-07-30T13:57:09;25.50;93.60
4509;DHT22;2267;48.816;9.230;2023-07-30T13:59:35;25.50;92.80
4509;DHT22;2267;48.816;9.230;2023-07-30T14:02:03;25.40;92.40
4509;DHT22;2267;48.816;9.230;2023-07-30T14:04:30;25.60;92.30
4509;DHT22;2267;48.816;9.230;2023-07-30T14:06:56;25.70;92.30
4509;DHT22;2267;48.816;9.230;2023-07-30T14:09:23;25.70;91.90
4509;DHT22;2267;48.816;9.230;2023-07-30T14:11:51;25.80;91.50
4509;DHT22;2267;48.816;9.230;2023-07-30T14:14:18;25.90;91.60
4509;DHT22;2267;48.816;9.230;2023-07-30T14:16:47;26.00;91.10
4509;DHT22;2267;48.816;9.230;2023-07-30T14:19:14;26.00;90.80
4509;DHT22;2267;48.816;9.230;2023-07-30T14:21:41;26.00;90.90
4509;DHT22;2267;48.816;9.230;2023-07-30T14:24:10;26.10;91.20
4509;DHT22;2267;48.816;9.230;2023-07-30T14:26:39;26.10;91.00
4509;DHT22;2267;48.816;9.230;2023-07-30T14:29:06;26.10;90.60
4509;DHT22;2267;48.816;9.230;2023-07-30T14:31:33;26.00;88.70
4509;DHT22;2267;48.816;9.230;2023-07-30T14:34:00;26.00;90.30
4509;DHT22;2267;48.816;9.230;2023-07-30T14:36:27;26.10;89.50
4509;DHT22;2267;48.816;9.230;2023-07-30T14:38:53;26.10;89.00
4509;DHT22;2267;48.816;9.230;2023-07-30T14:41:20;26.20;88.10
4509;DHT22;2267;48.816;9.230;2023-07-30T14:43:47;26.20;88.60
4509;DHT22;2267;48.816;9.230;2023-07-30T14:46:14;26.30;88.10
4509;DHT22;2267;48.816;9.230;2023-07-30T14:48:41;26.30;89.00
4509;DHT22;2267;48.816;9.230;2023-07-30T14:51:09;26.40;87.10
4509;DHT22;2267;48.816;9.230;2023-07-30T14:53:36;26.40;86.10
4509;DHT22;2267;48.816;9.230;2023-07-30T14:56:03;26.40;87.30
4509;DHT22;2267;48.816;9.230;2023-07-30T14:58:31;26.40;85.10
4509;DHT22;2267;48.816;9.230;2023-07-30T15:00:57;26.30;86.00
4509;DHT22;2267;48.816;9.230;2023-07-30T15:03:24;26.40;85.80
4509;DHT22;2267;48.816;9.230;2023-07-30T15:05:51;26.50;85.60
4509;DHT22;2267;48.816;9.230;2023-07-30T15:08:18;26.50;85.00
4509;DHT22;2267;48.816;9.230;2023-07-30T15:10:45;26.50;84.90
4509;DHT22;2267;48.816;9.230;2023-07-30T15:13:12;26.50;84.90
4509;DHT22;2267;48.816;9.230;2023-07-30T15:15:39;26.60;83.80
4509;DHT22;2267;48.816;9.230;2023-07-30T15:18:06;26.70;83.00
4509;DHT22;2267;48.816;9.230;2023-07-30T15:20:35;26.70;82.80
4509;DHT22;2267;48.816;9.230;2023-07-30T15:23:02;26.70;82.70
4509;DHT22;2267;48.816;9.230;2023-07-30T15:25:28;26.70;82.40
4509;DHT22;2267;48.816;9.230;2023-07-30T15:27:55;26.70;81.60
4509;DHT22;2267;48.816;9.230;2023-07-30T15:30:24;26.70;82.30
4509;DHT22;2267;48.816;9.230;2023-07-30T15:32:51;26.50;81.80
4509;DHT22;2267;48.816;9.230;2023-07-30T15:35:18;26.50;81.90
4509;DHT22;2267;48.816;9.230;2023-07-30T15:37:45;26.50;81.40
4509;DHT22;2267;48.816;9.230;2023-07-30T15:40:12;26.40;79.50
4509;DHT22;2267;48.816;9.230;2023-07-30T15:42:39;26.30;78.60
4509;DHT22;2267;48.816;9.230;2023-07-30T15:45:06;26.20;78.10
4509;DHT22;2267;48.816;9.230;2023-07-30T15:47:33;26.30;77.70
4509;DHT22;2267;48.816;9.230;2023-07-30T15:50:00;26.30;78.30
4509;DHT22;2267;48.816;9.230;2023-07-30T15:52:28;26.30;77.20
4509;DHT22;2267;48.816;9.230;2023-07-30T15:54:55;26.30;77.50
4509;DHT22;2267;48.816;9.230;2023-07-30T15:57:22;26.20;76.80
4509;DHT22;2267;48.816;9.230;2023-07-30T15:59:48;26.20;76.90
4509;DHT22;2267;48.816;9.230;2023-07-30T16:02:17;26.20;78.50
4509;DHT22;2267;48.816;9.230;2023-07-30T16:04:44;26.20;79.50
4509;DHT22;2267;48.816;9.230;2023-07-30T16:07:11;26.20;77.10
4509;DHT22;2267;48.816;9.230;2023-07-30T16:09:40;26.20;76.80
4509;DHT22;2267;48.816;9.230;2023-07-30T16:12:07;26.20;77.50
4509;DHT22;2267;48.816;9.230;2023-07-30T16:14:34;26.20;77.50